sensor_id;sensor_type;location;lat;lon;timestamp;P1;durP1;ratioP1;P2;durP2;ratioP2
10440;SDS011;5268;49.346;9.522;2023-05-10T03:09:58;2.10;;;1.50;;
10440;SDS011;5268;49.346;9.522;2023-05-10T03:15:01;1.45;;;1.20;;
10440;SDS011;5268;49.346;9.522;2023-05-10T03:20:10;1.83;;;1.70;;
10440;SDS011;5268;49.346;9.522;2023-05-10T03:25:16;1.90;;;1.70;;
10440;SDS011;5268;49.346;9.522;2023-05-10T03:30:19;2.13;;;1.80;;
10440;SDS011;5268;49.346;9.522;2023-05-10T03:35:22;5.28;;;2.00;;
10440;SDS011;5268;49.346;9.522;2023-05-10T03:40:26;3.05;;;2.13;;
10440;SDS011;5268;49.346;9.522;2023-05-10T03:45:32;2.28;;;2.05;;
10440;SDS011;5268;49.346;9.522;2023-05-10T03:50:34;4.55;;;2.25;;
10440;SDS011;5268;49.346;9.522;2023-05-10T03:55:37;3.42;;;2.20;;
10440;SDS011;5268;49.346;9.522;2023-05-10T04:00:39;2.22;;;2.03;;
10440;SDS011;5268;49.346;9.522;2023-05-10T04:05:45;2.88;;;2.30;;
10440;SDS011;5268;49.346;9.522;2023-05-10T04:10:48;2.50;;;2.30;;
10440;SDS011;5268;49.346;9.522;2023-05-10T04:15:50;3.40;;;2.15;;
10440;SDS011;5268;49.346;9.522;2023-05-10T04:20:53;2.40;;;2.20;;
10440;SDS011;5268;49.346;9.522;2023-05-10T04:26:00;3.20;;;2.35;;
10440;SDS011;5268;49.346;9.522;2023-05-10T04:31:02;2.75;;;2.35;;
10440;SDS011;5268;49.346;9.522;2023-05-10T04:36:05;3.08;;;2.30;;
10440;SDS011;5268;49.346;9.522;2023-05-10T04:41:09;4.10;;;2.72;;
10440;SDS011;5268;49.346;9.522;2023-05-10T04:46:12;7.93;;;2.60;;
10440;SDS011;5268;49.346;9.522;2023-05-10T04:51:13;3.22;;;2.40;;
10440;SDS011;5268;49.346;9.522;2023-05-10T04:56:17;2.97;;;2.67;;
10440;SDS011;5268;49.346;9.522;2023-05-10T05:01:19;2.55;;;2.35;;
10440;SDS011;5268;49.346;9.522;2023-05-10T05:06:21;3.20;;;2.60;;
10440;SDS011;5268;49.346;9.522;2023-05-10T05:11:26;3.20;;;2.63;;
10440;SDS011;5268;49.346;9.522;2023-05-10T05:16:30;2.70;;;2.50;;
10440;SDS011;5268;49.346;9.522;2023-05-10T05:21:32;3.05;;;2.80;;
10440;SDS011;5268;49.346;9.522;2023-05-10T05:26:35;2.47;;;2.25;;
10440;SDS011;5268;49.346;9.522;2023-05-10T05:31:37;3.13;;;2.85;;
10440;SDS011;5268;49.346;9.522;2023-05-10T05:36:39;2.88;;;2.63;;
10440;SDS011;5268;49.346;9.522;2023-05-10T05:41:43;2.90;;;2.60;;
10440;SDS011;5268;49.346;9.522;2023-05-10T05:46:45;2.63;;;2.42;;
10440;SDS011;5268;49.346;9.522;2023-05-10T05:51:47;3.25;;;2.95;;
10440;SDS011;5268;49.346;9.522;2023-05-10T05:56:53;3.78;;;3.00;;
10440;SDS011;5268;49.346;9.522;2023-05-10T06:01:55;4.05;;;3.67;;
10440;SDS011;5268;49.346;9.522;2023-05-10T06:06:57;3.60;;;3.25;;
10440;SDS011;5268;49.346;9.522;2023-05-10T06:12:00;4.57;;;2.70;;
10440;SDS011;5268;49.346;9.522;2023-05-10T06:17:03;3.75;;;2.70;;
10440;SDS011;5268;49.346;9.522;2023-05-10T06:22:05;2.88;;;2.38;;
10440;SDS011;5268;49.346;9.522;2023-05-10T06:27:08;2.85;;;2.65;;
10440;SDS011;5268;49.346;9.522;2023-05-10T06:32:10;3.20;;;2.60;;
10440;SDS011;5268;49.346;9.522;2023-05-10T06:37:12;3.30;;;2.97;;
10440;SDS011;5268;49.346;9.522;2023-05-10T06:42:15;4.03;;;2.92;;
10440;SDS011;5268;49.346;9.522;2023-05-10T06:47:18;3.17;;;2.55;;
10440;SDS011;5268;49.346;9.522;2023-05-10T06:52:19;3.03;;;2.72;;
10440;SDS011;5268;49.346;9.522;2023-05-10T06:57:23;3.42;;;2.40;;
10440;SDS011;5268;49.346;9.522;2023-05-10T07:02:25;3.45;;;3.15;;
10440;SDS011;5268;49.346;9.522;2023-05-10T07:07:28;6.47;;;4.32;;
10440;SDS011;5268;49.346;9.522;2023-05-10T07:12:31;3.83;;;3.45;;
10440;SDS011;5268;49.346;9.522;2023-05-10T07:17:33;4.15;;;2.80;;
10440;SDS011;5268;49.346;9.522;2023-05-10T07:22:35;3.25;;;2.95;;
10440;SDS011;5268;49.346;9.522;2023-05-10T07:27:39;2.95;;;2.75;;
10440;SDS011;5268;49.346;9.522;2023-05-10T07:32:40;4.47;;;2.85;;
10440;SDS011;5268;49.346;9.522;2023-05-10T07:37:42;3.58;;;2.95;;
10440;SDS011;5268;49.346;9.522;2023-05-10T07:42:46;2.80;;;2.60;;
10440;SDS011;5268;49.346;9.522;2023-05-10T07:47:48;4.32;;;3.42;;
10440;SDS011;5268;49.346;9.522;2023-05-10T07:52:50;2.97;;;2.67;;
10440;SDS011;5268;49.346;9.522;2023-05-10T07:57:53;2.67;;;2.10;;
10440;SDS011;5268;49.346;9.522;2023-05-10T08:02:55;1.95;;;1.85;;
10440;SDS011;5268;49.346;9.522;2023-05-10T08:07:57;2.30;;;1.92;;
10440;SDS011;5268;49.346;9.522;2023-05-10T08:13:00;2.25;;;1.80;;
10440;SDS011;5268;49.346;9.522;2023-05-10T08:18:02;1.85;;;1.75;;
10440;SDS011;5268;49.346;9.522;2023-05-10T08:23:05;1.95;;;1.75;;
10440;SDS011;5268;49.346;9.522;2023-05-10T08:28:08;3.05;;;2.60;;
10440;SDS011;5268;49.346;9.522;2023-05-10T08:33:10;2.30;;;2.00;;
10440;SDS011;5268;49.346;9.522;2023-05-10T08:38:12;2.60;;;1.80;;
10440;SDS011;5268;49.346;9.522;2023-05-10T08:43:16;6.28;;;4.75;;
10440;SDS011;5268;49.346;9.522;2023-05-10T08:48:18;2.83;;;2.63;;
10440;SDS011;5268;49.346;9.522;2023-05-10T08:53:20;2.90;;;2.53;;
10440;SDS011;5268;49.346;9.522;2023-05-10T08:58:26;2.15;;;2.03;;
10440;SDS011;5268;49.346;9.522;2023-05-10T09:03:28;2.58;;;2.38;;
10440;SDS011;5268;49.346;9.522;2023-05-10T09:08:30;3.13;;;2.40;;
10440;SDS011;5268;49.346;9.522;2023-05-10T09:13:34;2.92;;;2.13;;
10440;SDS011;5268;49.346;9.522;2023-05-10T09:18:37;1.90;;;1.70;;
10440;SDS011;5268;49.346;9.522;2023-05-10T09:23:42;2.08;;;1.88;;
10440;SDS011;5268;49.346;9.522;2023-05-10T09:28:52;2.53;;;1.80;;
10440;SDS011;5268;49.346;9.522;2023-05-10T09:33:56;3.80;;;1.75;;
10440;SDS011;5268;49.346;9.522;2023-05-10T09:38:57;2.90;;;1.70;;
10440;SDS011;5268;49.346;9.522;2023-05-10T09:44:01;1.42;;;1.33;;
10440;SDS011;5268;49.346;9.522;2023-05-10T09:49:03;2.85;;;1.50;;
10440;SDS011;5268;49.346;9.522;2023-05-10T09:54:10;2.20;;;1.50;;
10440;SDS011;5268;49.346;9.522;2023-05-10T09:59:15;1.85;;;1.60;;
10440;SDS011;5268;49.346;9.522;2023-05-10T10:04:17;2.33;;;1.30;;
10440;SDS011;5268;49.346;9.522;2023-05-10T10:09:20;1.92;;;1.45;;
10440;SDS011;5268;49.346;9.522;2023-05-10T10:14:24;2.20;;;1.30;;
10440;SDS011;5268;49.346;9.522;2023-05-10T10:19:26;2.17;;;1.27;;
10440;SDS011;5268;49.346;9.522;2023-05-10T10:24:29;1.60;;;1.40;;
10440;SDS011;5268;49.346;9.522;2023-05-10T10:29:34;1.65;;;1.40;;
10440;SDS011;5268;49.346;9.522;2023-05-10T10:34:40;2.00;;;1.50;;
10440;SDS011;5268;49.346;9.522;2023-05-10T10:39:42;1.55;;;1.30;;
10440;SDS011;5268;49.346;9.522;2023-05-10T10:44:46;1.42;;;1.27;;
10440;SDS011;5268;49.346;9.522;2023-05-10T10:49:48;1.98;;;1.67;;
10440;SDS011;5268;49.346;9.522;2023-05-10T10:54:51;2.38;;;2.17;;
10440;SDS011;5268;49.346;9.522;2023-05-10T11:05:34;2.25;;;2.05;;
10440;SDS011;5268;49.346;9.522;2023-05-10T11:10:38;1.73;;;1.60;;
10440;SDS011;5268;49.346;9.522;2023-05-10T11:15:47;2.35;;;1.10;;
10440;SDS011;5268;49.346;9.522;2023-05-10T11:20:51;1.52;;;1.40;;
10440;SDS011;5268;49.346;9.522;2023-05-10T11:25:53;1.50;;;1.10;;
10440;SDS011;5268;49.346;9.522;2023-05-10T11:30:57;10.60;;;2.40;;
10440;SDS011;5268;49.346;9.522;2023-05-10T11:35:59;2.08;;;1.20;;
10440;SDS011;5268;49.346;9.522;2023-05-10T11:41:01;2.67;;;1.45;;
10440;SDS011;5268;49.346;9.522;2023-05-10T11:46:05;2.55;;;1.90;;
10440;SDS011;5268;49.346;9.522;2023-05-10T11:51:08;2.83;;;2.10;;
10440;SDS011;5268;49.346;9.522;2023-05-10T11:56:11;2.63;;;1.30;;
10440;SDS011;5268;49.346;9.522;2023-05-10T12:01:15;2.00;;;1.13;;
10440;SDS011;5268;49.346;9.522;2023-05-10T12:06:17;3.17;;;1.60;;
10440;SDS011;5268;49.346;9.522;2023-05-10T12:11:19;2.60;;;1.20;;
10440;SDS011;5268;49.346;9.522;2023-05-10T12:16:28;1.90;;;1.80;;
10440;SDS011;5268;49.346;9.522;2023-05-10T12:21:30;3.03;;;1.10;;
10440;SDS011;5268;49.346;9.522;2023-05-10T12:26:32;2.72;;;1.20;;
10440;SDS011;5268;49.346;9.522;2023-05-10T12:31:49;1.83;;;1.20;;
10440;SDS011;5268;49.346;9.522;2023-05-10T12:36:52;3.15;;;2.80;;
10440;SDS011;5268;49.346;9.522;2023-05-10T12:41:56;2.05;;;1.58;;
10440;SDS011;5268;49.346;9.522;2023-05-10T12:46:59;1.80;;;1.50;;
10440;SDS011;5268;49.346;9.522;2023-05-10T12:52:01;2.10;;;1.10;;
10440;SDS011;5268;49.346;9.522;2023-05-10T12:57:03;2.53;;;1.45;;
10440;SDS011;5268;49.346;9.522;2023-05-10T13:02:07;2.33;;;1.33;;
10440;SDS011;5268;49.346;9.522;2023-05-10T13:07:10;1.40;;;1.10;;
10440;SDS011;5268;49.346;9.522;2023-05-10T13:12:11;1.88;;;1.10;;
10440;SDS011;5268;49.346;9.522;2023-05-10T13:17:15;2.15;;;1.85;;
10440;SDS011;5268;49.346;9.522;2023-05-10T13:22:17;2.58;;;1.40;;
10440;SDS011;5268;49.346;9.522;2023-05-10T13:27:19;2.38;;;2.17;;
10440;SDS011;5268;49.346;9.522;2023-05-10T13:32:22;2.90;;;2.05;;
10440;SDS011;5268;49.346;9.522;2023-05-10T13:37:24;2.47;;;1.38;;
10440;SDS011;5268;49.346;9.522;2023-05-10T13:42:26;1.92;;;1.45;;
10440;SDS011;5268;49.346;9.522;2023-05-10T13:47:29;2.53;;;1.30;;
10440;SDS011;5268;49.346;9.522;2023-05-10T13:52:31;3.15;;;1.30;;
10440;SDS011;5268;49.346;9.522;2023-05-10T13:57:33;2.60;;;1.10;;
10440;SDS011;5268;49.346;9.522;2023-05-10T14:02:37;2.85;;;1.15;;
10440;SDS011;5268;49.346;9.522;2023-05-10T14:07:39;1.60;;;0.90;;
10440;SDS011;5268;49.346;9.522;2023-05-10T14:12:41;2.50;;;1.08;;
10440;SDS011;5268;49.346;9.522;2023-05-10T14:17:44;2.83;;;1.10;;
10440;SDS011;5268;49.346;9.522;2023-05-10T14:22:46;1.98;;;1.02;;
10440;SDS011;5268;49.346;9.522;2023-05-10T14:27:48;2.30;;;1.00;;
10440;SDS011;5268;49.346;9.522;2023-05-10T14:32:52;1.75;;;1.00;;
10440;SDS011;5268;49.346;9.522;2023-05-10T14:37:55;4.75;;;1.00;;
10440;SDS011;5268;49.346;9.522;2023-05-10T14:42:57;2.83;;;1.20;;
10440;SDS011;5268;49.346;9.522;2023-05-10T14:48:01;2.10;;;1.38;;
10440;SDS011;5268;49.346;9.522;2023-05-10T14:53:04;4.82;;;2.03;;
10440;SDS011;5268;49.346;9.522;2023-05-10T14:58:06;3.47;;;1.48;;
10440;SDS011;5268;49.346;9.522;2023-05-10T15:03:09;3.60;;;1.20;;
10440;SDS011;5268;49.346;9.522;2023-05-10T15:08:12;2.10;;;1.30;;
10440;SDS011;5268;49.346;9.522;2023-05-10T15:13:14;3.15;;;1.30;;
10440;SDS011;5268;49.346;9.522;2023-05-10T15:18:17;3.47;;;1.30;;
10440;SDS011;5268;49.346;9.522;2023-05-10T15:23:19;3.45;;;1.40;;
10440;SDS011;5268;49.346;9.522;2023-05-10T15:28:21;2.13;;;1.70;;
10440;SDS011;5268;49.346;9.522;2023-05-10T15:33:24;2.55;;;1.85;;
10440;SDS011;5268;49.346;9.522;2023-05-10T15:38:27;5.30;;;2.30;;
10440;SDS011;5268;49.346;9.522;2023-05-10T15:43:29;4.80;;;1.50;;
10440;SDS011;5268;49.346;9.522;2023-05-10T15:48:32;4.13;;;1.20;;
10440;SDS011;5268;49.346;9.522;2023-05-10T15:53:34;4.22;;;1.35;;
10440;SDS011;5268;49.346;9.522;2023-05-10T15:58:36;1.80;;;1.33;;
10440;SDS011;5268;49.346;9.522;2023-05-10T16:03:40;2.90;;;1.17;;
10440;SDS011;5268;49.346;9.522;2023-05-10T16:08:42;2.83;;;1.30;;
10440;SDS011;5268;49.346;9.522;2023-05-10T16:13:44;4.07;;;1.23;;
10440;SDS011;5268;49.346;9.522;2023-05-10T16:18:47;2.88;;;1.42;;
10440;SDS011;5268;49.346;9.522;2023-05-10T16:23:49;1.70;;;1.20;;
10440;SDS011;5268;49.346;9.522;2023-05-10T16:28:51;1.65;;;1.23;;
10440;SDS011;5268;49.346;9.522;2023-05-10T16:33:54;2.72;;;1.30;;
10440;SDS011;5268;49.346;9.522;2023-05-10T16:38:56;1.73;;;1.30;;
10440;SDS011;5268;49.346;9.522;2023-05-10T16:43:59;2.05;;;1.20;;
10440;SDS011;5268;49.346;9.522;2023-05-10T16:49:05;2.92;;;1.20;;
10440;SDS011;5268;49.346;9.522;2023-05-10T16:54:07;1.98;;;1.30;;
10440;SDS011;5268;49.346;9.522;2023-05-10T16:59:09;2.60;;;1.20;;
10440;SDS011;5268;49.346;9.522;2023-05-10T17:04:13;2.47;;;1.30;;
10440;SDS011;5268;49.346;9.522;2023-05-10T17:09:15;2.40;;;1.38;;
10440;SDS011;5268;49.346;9.522;2023-05-10T17:14:19;2.63;;;1.40;;
10440;SDS011;5268;49.346;9.522;2023-05-10T17:19:22;1.40;;;1.10;;
10440;SDS011;5268;49.346;9.522;2023-05-10T17:24:24;2.50;;;1.10;;
10440;SDS011;5268;49.346;9.522;2023-05-10T17:29:28;3.92;;;1.45;;
10440;SDS011;5268;49.346;9.522;2023-05-10T17:34:32;3.40;;;1.40;;
10440;SDS011;5268;49.346;9.522;2023-05-10T17:39:34;2.83;;;1.40;;
10440;SDS011;5268;49.346;9.522;2023-05-10T17:44:36;1.60;;;1.17;;
10440;SDS011;5268;49.346;9.522;2023-05-10T17:49:39;1.75;;;1.40;;
10440;SDS011;5268;49.346;9.522;2023-05-10T17:54:41;3.15;;;1.35;;
10440;SDS011;5268;49.346;9.522;2023-05-10T17:59:43;2.20;;;1.30;;
10440;SDS011;5268;49.346;9.522;2023-05-10T18:04:47;2.45;;;1.13;;
10440;SDS011;5268;49.346;9.522;2023-05-10T18:09:49;3.20;;;1.30;;
10440;SDS011;5268;49.346;9.522;2023-05-10T18:14:51;2.80;;;1.63;;
10440;SDS011;5268;49.346;9.522;2023-05-10T18:19:54;2.33;;;1.40;;
10440;SDS011;5268;49.346;9.522;2023-05-10T18:24:56;2.35;;;1.00;;
10440;SDS011;5268;49.346;9.522;2023-05-10T18:29:58;2.42;;;1.50;;
10440;SDS011;5268;49.346;9.522;2023-05-10T18:35:01;3.28;;;1.23;;
10440;SDS011;5268;49.346;9.522;2023-05-10T18:40:04;1.40;;;1.23;;
10440;SDS011;5268;49.346;9.522;2023-05-10T18:45:08;2.63;;;1.42;;
10440;SDS011;5268;49.346;9.522;2023-05-10T18:50:12;7.43;;;3.47;;
10440;SDS011;5268;49.346;9.522;2023-05-10T18:55:16;18.98;;;8.32;;
10440;SDS011;5268;49.346;9.522;2023-05-10T19:00:18;6.45;;;3.53;;
10440;SDS011;5268;49.346;9.522;2023-05-10T19:05:21;10.00;;;4.50;;
10440;SDS011;5268;49.346;9.522;2023-05-10T19:10:28;3.58;;;1.85;;
10440;SDS011;5268;49.346;9.522;2023-05-10T19:15:30;3.85;;;1.60;;
10440;SDS011;5268;49.346;9.522;2023-05-10T19:20:34;4.22;;;1.52;;
10440;SDS011;5268;49.346;9.522;2023-05-10T19:25:36;4.50;;;2.45;;
10440;SDS011;5268;49.346;9.522;2023-05-10T19:30:38;2.70;;;1.30;;
10440;SDS011;5268;49.346;9.522;2023-05-10T19:35:41;3.70;;;1.65;;
10440;SDS011;5268;49.346;9.522;2023-05-10T19:40:43;5.60;;;2.22;;
10440;SDS011;5268;49.346;9.522;2023-05-10T19:45:45;4.00;;;1.60;;
10440;SDS011;5268;49.346;9.522;2023-05-10T19:50:49;3.85;;;1.63;;
10440;SDS011;5268;49.346;9.522;2023-05-10T19:55:51;4.78;;;1.50;;
10440;SDS011;5268;49.346;9.522;2023-05-10T20:00:53;1.77;;;1.63;;
10440;SDS011;5268;49.346;9.522;2023-05-10T20:05:56;3.95;;;1.85;;
10440;SDS011;5268;49.346;9.522;2023-05-10T20:10:58;3.88;;;1.60;;
10440;SDS011;5268;49.346;9.522;2023-05-10T20:16:02;3.95;;;1.58;;
10440;SDS011;5268;49.346;9.522;2023-05-10T20:21:07;2.00;;;1.40;;
10440;SDS011;5268;49.346;9.522;2023-05-10T20:26:09;2.65;;;1.60;;
10440;SDS011;5268;49.346;9.522;2023-05-10T20:31:11;4.68;;;1.63;;
10440;SDS011;5268;49.346;9.522;2023-05-10T20:36:14;3.10;;;1.85;;
10440;SDS011;5268;49.346;9.522;2023-05-10T20:41:16;3.33;;;1.80;;
10440;SDS011;5268;49.346;9.522;2023-05-10T20:46:19;3.20;;;1.70;;
10440;SDS011;5268;49.346;9.522;2023-05-10T20:51:23;3.95;;;1.88;;
10440;SDS011;5268;49.346;9.522;2023-05-10T20:56:26;4.40;;;1.80;;
10440;SDS011;5268;49.346;9.522;2023-05-10T21:01:28;4.13;;;1.50;;
10440;SDS011;5268;49.346;9.522;2023-05-10T21:06:32;3.45;;;1.70;;
10440;SDS011;5268;49.346;9.522;2023-05-10T21:11:34;2.15;;;1.70;;
10440;SDS011;5268;49.346;9.522;2023-05-10T21:16:37;3.00;;;1.60;;
10440;SDS011;5268;49.346;9.522;2023-05-10T21:21:40;3.92;;;1.80;;
10440;SDS011;5268;49.346;9.522;2023-05-10T21:26:42;2.25;;;1.60;;
10440;SDS011;5268;49.346;9.522;2023-05-10T21:31:44;3.40;;;1.70;;
10440;SDS011;5268;49.346;9.522;2023-05-10T21:36:48;3.08;;;1.58;;
10440;SDS011;5268;49.346;9.522;2023-05-10T21:41:50;2.95;;;1.50;;
10440;SDS011;5268;49.346;9.522;2023-05-10T21:46:52;4.18;;;1.55;;
10440;SDS011;5268;49.346;9.522;2023-05-10T21:51:56;3.40;;;1.40;;
